createdAt,value
2018-09-30T00:01:41.348Z,94.90
2018-09-30T00:04:09.868Z,94.90
2018-09-30T00:06:38.356Z,95.00
2018-09-30T00:09:07.688Z,95.30
2018-09-30T00:11:36.206Z,95.40
2018-09-30T00:14:04.772Z,95.40
2018-09-30T00:16:33.282Z,95.40
2018-09-30T00:19:01.874Z,95.60
2018-09-30T00:21:30.480Z,95.70
2018-09-30T00:24:04.168Z,96.00
2018-09-30T00:26:38.067Z,96.10
2018-09-30T00:29:06.565Z,95.80
2018-09-30T00:31:35.148Z,95.80
2018-09-30T00:34:08.934Z,95.80
2018-09-30T00:36:37.478Z,95.60
2018-09-30T00:39:06.568Z,95.80
2018-09-30T00:41:35.104Z,95.50
2018-09-30T00:44:03.629Z,95.60
2018-09-30T00:46:32.200Z,95.60
2018-09-30T00:49:00.742Z,95.60
2018-09-30T00:51:29.286Z,95.70
2018-09-30T00:53:57.827Z,95.70
2018-09-30T00:56:26.415Z,95.70
2018-09-30T00:58:55.128Z,95.60
2018-09-30T01:01:23.699Z,95.50
2018-09-30T01:03:52.201Z,95.60
2018-09-30T01:06:21.115Z,95.30
2018-09-30T01:08:49.643Z,95.40
2018-09-30T01:11:18.223Z,95.40
2018-09-30T01:13:46.713Z,95.50
2018-09-30T01:16:15.219Z,95.40
2018-09-30T01:18:43.739Z,95.40
2018-09-30T01:21:12.209Z,95.40
2018-09-30T01:23:40.752Z,95.70
2018-09-30T01:26:09.263Z,95.70
2018-09-30T01:28:37.843Z,95.70
2018-09-30T01:31:06.783Z,95.70
2018-09-30T01:33:35.352Z,95.40
2018-09-30T01:36:03.901Z,95.60
2018-09-30T01:38:32.429Z,95.60
2018-09-30T01:41:00.931Z,95.80
2018-09-30T01:43:29.476Z,95.60
2018-09-30T01:45:58.011Z,95.50
2018-09-30T01:48:26.616Z,95.70
2018-09-30T01:50:55.175Z,95.70
2018-09-30T01:53:23.742Z,95.70
2018-09-30T01:55:52.269Z,95.60
2018-09-30T01:58:20.871Z,95.60
2018-09-30T02:00:49.489Z,95.60
2018-09-30T02:03:18.100Z,95.90
2018-09-30T02:05:46.615Z,95.70
2018-09-30T02:08:15.097Z,95.90
2018-09-30T02:10:43.622Z,96.00
2018-09-30T02:13:12.138Z,95.90
2018-09-30T02:15:40.653Z,95.80
2018-09-30T02:18:09.145Z,96.10
2018-09-30T02:20:37.704Z,96.20
2018-09-30T02:23:06.230Z,96.30
2018-09-30T02:25:34.800Z,96.30
2018-09-30T02:28:03.304Z,96.30
2018-09-30T02:30:31.886Z,96.20
2018-09-30T02:33:00.371Z,96.00
2018-09-30T02:35:28.902Z,96.10
2018-09-30T02:37:57.405Z,96.20
2018-09-30T02:40:25.949Z,96.30
2018-09-30T02:42:54.472Z,96.70
2018-09-30T02:45:23.015Z,96.80
2018-09-30T02:47:51.549Z,97.00
2018-09-30T02:50:20.100Z,96.90
2018-09-30T02:52:48.582Z,96.80
2018-09-30T02:55:17.122Z,97.00
2018-09-30T02:57:45.666Z,97.10
2018-09-30T03:00:14.238Z,97.10
2018-09-30T03:02:42.774Z,97.10
2018-09-30T03:05:11.297Z,97.10
2018-09-30T03:07:45.163Z,97.00
2018-09-30T03:10:13.670Z,97.30
2018-09-30T03:12:42.219Z,97.20
2018-09-30T03:15:10.748Z,97.40
2018-09-30T03:17:39.260Z,97.50
2018-09-30T03:20:07.763Z,97.60
2018-09-30T03:22:36.663Z,97.70
2018-09-30T03:25:05.196Z,97.80
2018-09-30T03:27:33.718Z,97.80
2018-09-30T03:30:02.255Z,97.90
2018-09-30T03:32:30.759Z,98.10
2018-09-30T03:34:59.335Z,98.20
2018-09-30T03:37:27.869Z,98.10
2018-09-30T03:39:56.391Z,98.00
2018-09-30T03:42:24.940Z,98.20
2018-09-30T03:44:53.435Z,98.30
2018-09-30T03:47:21.951Z,98.30
2018-09-30T03:49:50.465Z,98.40
2018-09-30T03:52:19.032Z,98.60
2018-09-30T03:54:47.539Z,98.60
2018-09-30T03:57:16.038Z,98.50
2018-09-30T03:59:44.547Z,98.70
2018-09-30T04:02:13.048Z,98.60
2018-09-30T04:04:41.559Z,98.50
2018-09-30T04:07:10.075Z,98.40
2018-09-30T04:09:38.711Z,98.40
2018-09-30T04:12:07.119Z,98.60
2018-09-30T04:14:35.654Z,98.70
2018-09-30T04:17:04.336Z,98.80
2018-09-30T04:19:32.787Z,98.90
2018-09-30T04:22:01.287Z,98.90
2018-09-30T04:24:29.865Z,98.90
2018-09-30T04:26:58.367Z,98.90
2018-09-30T04:29:26.931Z,98.90
2018-09-30T04:31:55.431Z,98.70
2018-09-30T04:34:23.971Z,98.80
2018-09-30T04:36:52.486Z,98.70
2018-09-30T04:39:21.069Z,98.90
2018-09-30T04:41:49.588Z,98.80
2018-09-30T04:44:18.118Z,99.30
2018-09-30T04:46:46.608Z,98.90
2018-09-30T04:49:15.167Z,99.10
2018-09-30T04:51:43.668Z,99.00
2018-09-30T04:54:12.191Z,99.10
2018-09-30T04:56:40.796Z,99.20
2018-09-30T04:59:09.339Z,99.10
2018-09-30T05:01:37.920Z,99.20
2018-09-30T05:04:06.427Z,99.30
2018-09-30T05:06:34.987Z,99.30
2018-09-30T05:09:03.867Z,99.60
2018-09-30T05:11:32.391Z,99.60
2018-09-30T05:14:00.894Z,99.50
2018-09-30T05:16:29.520Z,99.50
2018-09-30T05:18:57.959Z,99.70
2018-09-30T05:21:26.507Z,99.90
2018-09-30T05:23:54.999Z,99.90
2018-09-30T05:26:23.514Z,99.90
2018-09-30T05:28:51.995Z,99.90
2018-09-30T05:31:20.554Z,99.90
2018-09-30T05:33:49.059Z,99.90
2018-09-30T05:36:17.573Z,99.90
2018-09-30T05:38:46.055Z,99.90
2018-09-30T05:41:14.563Z,99.90
2018-09-30T05:43:43.061Z,99.90
2018-09-30T05:46:11.543Z,99.90
2018-09-30T05:48:40.127Z,99.90
2018-09-30T05:51:08.695Z,99.90
2018-09-30T05:53:37.255Z,99.90
2018-09-30T05:56:05.779Z,99.90
2018-09-30T05:58:34.322Z,99.90
2018-09-30T06:01:02.903Z,99.90
2018-09-30T06:03:31.422Z,99.90
2018-09-30T06:05:59.915Z,99.90
2018-09-30T06:08:28.559Z,99.90
2018-09-30T06:10:57.056Z,99.90
2018-09-30T06:13:25.587Z,99.90
2018-09-30T06:15:54.102Z,99.90
2018-09-30T06:18:22.643Z,99.90
2018-09-30T06:20:51.191Z,99.90
2018-09-30T06:23:19.707Z,99.90
2018-09-30T06:25:48.211Z,99.90
2018-09-30T06:28:16.748Z,99.90
2018-09-30T06:30:45.248Z,99.90
2018-09-30T06:33:13.754Z,99.90
2018-09-30T06:35:42.256Z,99.90
2018-09-30T06:38:10.807Z,99.90
2018-09-30T06:40:39.291Z,99.90
2018-09-30T06:43:07.800Z,99.70
2018-09-30T06:45:36.343Z,99.30
2018-09-30T06:48:04.839Z,98.70
2018-09-30T06:50:33.686Z,98.40
2018-09-30T06:53:02.607Z,97.40
2018-09-30T06:55:31.155Z,97.60
2018-09-30T06:57:59.655Z,96.60
2018-09-30T07:00:28.190Z,95.80
2018-09-30T07:02:56.682Z,95.00
2018-09-30T07:05:25.339Z,95.20
2018-09-30T07:07:54.096Z,93.80
2018-09-30T07:10:22.644Z,94.10
2018-09-30T07:12:51.184Z,93.90
2018-09-30T07:15:19.706Z,93.70
2018-09-30T07:17:48.207Z,93.40
2018-09-30T07:20:16.732Z,93.50
2018-09-30T07:22:45.318Z,92.70
2018-09-30T07:25:13.852Z,93.00
2018-09-30T07:27:42.444Z,92.50
2018-09-30T07:30:11.016Z,91.50
2018-09-30T07:32:39.516Z,92.10
2018-09-30T07:35:08.166Z,90.70
2018-09-30T07:37:36.711Z,90.30
2018-09-30T07:40:09.720Z,90.60
2018-09-30T07:42:38.284Z,88.40
2018-09-30T07:45:06.904Z,88.50
2018-09-30T07:47:35.474Z,88.00
2018-09-30T07:50:04.050Z,85.40
2018-09-30T07:52:32.684Z,85.30
2018-09-30T07:55:01.172Z,83.60
2018-09-30T07:57:29.783Z,83.10
2018-09-30T07:59:58.314Z,81.80
2018-09-30T08:02:26.847Z,82.40
2018-09-30T08:04:55.356Z,82.00
2018-09-30T08:07:24.079Z,83.00
2018-09-30T08:09:52.644Z,82.30
2018-09-30T08:12:21.208Z,80.80
2018-09-30T08:14:49.764Z,80.80
2018-09-30T08:17:18.311Z,79.30
2018-09-30T08:19:46.836Z,77.90
2018-09-30T08:22:15.406Z,78.70
2018-09-30T08:24:43.952Z,78.40
2018-09-30T08:27:12.507Z,78.10
2018-09-30T08:29:41.063Z,76.50
2018-09-30T08:32:09.655Z,77.10
2018-09-30T08:34:38.187Z,75.20
2018-09-30T08:37:06.839Z,75.30
2018-09-30T08:39:35.444Z,73.80
2018-09-30T08:42:03.923Z,73.40
2018-09-30T08:44:32.445Z,75.00
2018-09-30T08:47:00.984Z,74.20
2018-09-30T08:49:29.539Z,75.00
2018-09-30T08:51:58.061Z,73.30
2018-09-30T08:54:26.658Z,71.60
2018-09-30T08:56:55.199Z,70.10
2018-09-30T08:59:23.743Z,70.60
2018-09-30T09:01:52.359Z,70.60
2018-09-30T09:04:20.883Z,71.10
2018-09-30T09:06:49.411Z,69.50
2018-09-30T09:09:17.969Z,68.80
2018-09-30T09:11:46.492Z,68.10
2018-09-30T09:14:15.064Z,67.50
2018-09-30T09:16:43.579Z,67.80
2018-09-30T09:19:12.159Z,67.50
2018-09-30T09:21:40.699Z,68.40
2018-09-30T09:24:09.205Z,65.90
2018-09-30T09:26:37.795Z,65.70
2018-09-30T09:29:06.329Z,62.80
2018-09-30T09:31:34.909Z,59.70
2018-09-30T09:34:03.473Z,60.70
2018-09-30T09:36:34.551Z,59.00
2018-09-30T09:39:05.796Z,61.30
2018-09-30T09:41:34.361Z,59.60
2018-09-30T09:44:02.909Z,58.60
2018-09-30T09:46:31.471Z,57.50
2018-09-30T09:49:00.042Z,58.20
2018-09-30T09:51:28.607Z,56.30
2018-09-30T09:53:57.118Z,56.30
2018-09-30T09:56:25.662Z,55.50
2018-09-30T09:58:54.279Z,56.90
2018-09-30T10:01:22.791Z,56.60
2018-09-30T10:03:51.291Z,56.10
2018-09-30T10:06:19.854Z,53.90
2018-09-30T10:08:48.424Z,54.00
2018-09-30T10:11:17.053Z,53.80
2018-09-30T10:13:45.567Z,53.40
2018-09-30T10:16:14.306Z,53.20
2018-09-30T10:18:42.875Z,53.70
2018-09-30T10:21:11.471Z,54.20
2018-09-30T10:23:40.068Z,52.90
2018-09-30T10:26:08.734Z,50.90
2018-09-30T10:28:37.272Z,51.20
2018-09-30T10:31:06.286Z,52.20
2018-09-30T10:33:34.856Z,51.10
2018-09-30T10:36:03.378Z,51.60
2018-09-30T10:38:32.028Z,50.80
2018-09-30T10:41:00.470Z,50.30
2018-09-30T10:43:29.002Z,50.90
2018-09-30T10:45:57.618Z,50.60
2018-09-30T10:48:26.377Z,49.50
2018-09-30T10:50:54.870Z,50.30
2018-09-30T10:53:23.380Z,50.50
2018-09-30T10:55:51.935Z,49.90
2018-09-30T10:58:20.514Z,48.90
2018-09-30T11:00:49.050Z,49.10
2018-09-30T11:03:17.663Z,50.50
2018-09-30T11:05:46.186Z,48.80
2018-09-30T11:08:14.742Z,50.30
2018-09-30T11:10:43.245Z,48.90
2018-09-30T11:13:11.802Z,50.00
2018-09-30T11:15:40.311Z,48.40
2018-09-30T11:18:08.917Z,48.40
2018-09-30T11:20:37.466Z,49.50
2018-09-30T11:23:06.066Z,49.00
2018-09-30T11:25:34.726Z,46.90
2018-09-30T11:28:03.238Z,47.50
2018-09-30T11:30:31.819Z,47.50
2018-09-30T11:33:00.314Z,47.90
2018-09-30T11:35:28.892Z,48.70
2018-09-30T11:37:57.430Z,47.90
2018-09-30T11:40:26.074Z,47.70
2018-09-30T11:42:54.561Z,47.60
2018-09-30T11:45:23.127Z,47.70
2018-09-30T11:47:51.686Z,46.80
2018-09-30T11:50:20.223Z,46.30
2018-09-30T11:52:48.863Z,46.60
2018-09-30T11:55:17.347Z,46.80
2018-09-30T11:57:45.914Z,47.40
2018-09-30T12:00:14.475Z,46.10
2018-09-30T12:02:43.023Z,46.40
2018-09-30T12:05:11.574Z,45.90
2018-09-30T12:07:40.062Z,45.90
2018-09-30T12:10:08.615Z,47.70
2018-09-30T12:12:37.143Z,46.40
2018-09-30T12:15:05.766Z,46.40
2018-09-30T12:17:34.283Z,43.60
2018-09-30T12:20:02.871Z,44.00
2018-09-30T12:22:31.431Z,46.60
2018-09-30T12:24:59.925Z,47.50
2018-09-30T12:27:28.466Z,46.00
2018-09-30T12:29:56.990Z,44.70
2018-09-30T12:32:25.558Z,44.10
2018-09-30T12:34:54.058Z,45.10
2018-09-30T12:37:22.650Z,46.50
2018-09-30T12:39:51.212Z,46.10
2018-09-30T12:42:19.775Z,45.30
2018-09-30T12:44:48.324Z,44.70
2018-09-30T12:47:16.893Z,44.40
2018-09-30T12:49:45.533Z,44.20
2018-09-30T12:52:14.082Z,44.00
2018-09-30T12:54:42.572Z,44.40
2018-09-30T12:57:11.187Z,44.90
2018-09-30T12:59:39.755Z,44.30
2018-09-30T13:02:08.346Z,44.60
2018-09-30T13:04:36.866Z,45.10
2018-09-30T13:07:05.570Z,40.80
2018-09-30T13:09:34.089Z,43.60
2018-09-30T13:12:03.168Z,42.50
2018-09-30T13:14:31.674Z,46.10
2018-09-30T13:17:00.170Z,45.90
2018-09-30T13:19:31.254Z,44.40
2018-09-30T13:21:59.754Z,43.30
2018-09-30T13:24:28.304Z,42.80
2018-09-30T13:26:56.851Z,43.70
2018-09-30T13:29:25.493Z,44.00
2018-09-30T13:31:53.993Z,43.40
2018-09-30T13:34:22.537Z,43.00
2018-09-30T13:36:51.116Z,44.30
2018-09-30T13:39:20.099Z,44.30
2018-09-30T13:41:48.584Z,44.30
2018-09-30T13:44:17.181Z,43.90
2018-09-30T13:46:45.699Z,43.00
2018-09-30T13:49:14.254Z,42.80
2018-09-30T13:51:42.859Z,43.30
2018-09-30T13:54:11.379Z,43.10
2018-09-30T13:56:39.882Z,43.60
2018-09-30T13:59:08.540Z,43.40
2018-09-30T14:01:37.053Z,43.40
2018-09-30T14:04:05.666Z,44.40
2018-09-30T14:06:34.202Z,44.30
2018-09-30T14:09:02.954Z,44.40
2018-09-30T14:11:31.458Z,43.70
2018-09-30T14:13:59.997Z,44.30
2018-09-30T14:16:28.562Z,44.40
2018-09-30T14:18:57.156Z,44.10
2018-09-30T14:21:25.787Z,43.20
2018-09-30T14:23:54.296Z,43.00
2018-09-30T14:26:22.826Z,43.50
2018-09-30T14:28:51.344Z,43.10
2018-09-30T14:31:19.899Z,42.40
2018-09-30T14:33:48.414Z,42.50
2018-09-30T14:36:16.980Z,43.40
2018-09-30T14:38:45.546Z,43.50
2018-09-30T14:41:14.142Z,43.70
2018-09-30T14:43:42.726Z,44.40
2018-09-30T14:46:11.338Z,43.40
2018-09-30T14:48:39.965Z,44.70
2018-09-30T14:51:08.453Z,44.90
2018-09-30T14:53:36.976Z,45.20
2018-09-30T14:56:05.544Z,44.70
2018-09-30T14:58:34.100Z,45.00
2018-09-30T15:01:03.114Z,45.80
2018-09-30T15:03:31.659Z,45.60
2018-09-30T15:06:00.190Z,46.20
2018-09-30T15:08:28.727Z,45.30
2018-09-30T15:10:57.286Z,45.30
2018-09-30T15:13:25.842Z,45.50
2018-09-30T15:15:54.340Z,46.70
2018-09-30T15:18:22.866Z,45.80
2018-09-30T15:20:51.371Z,46.40
2018-09-30T15:23:19.937Z,46.40
2018-09-30T15:25:48.440Z,46.60
2018-09-30T15:28:16.977Z,47.90
2018-09-30T15:30:45.479Z,47.30
2018-09-30T15:33:14.016Z,47.70
2018-09-30T15:35:42.507Z,47.90
2018-09-30T15:38:11.067Z,48.70
2018-09-30T15:40:39.564Z,48.40
2018-09-30T15:43:08.143Z,48.50
2018-09-30T15:45:36.646Z,48.90
2018-09-30T15:48:05.178Z,49.10
2018-09-30T15:50:33.704Z,49.60
2018-09-30T15:53:02.315Z,50.00
2018-09-30T15:55:30.863Z,50.10
2018-09-30T15:57:59.479Z,50.40
2018-09-30T16:00:27.991Z,50.80
2018-09-30T16:02:56.506Z,50.70
2018-09-30T16:05:25.141Z,50.90
2018-09-30T16:07:53.804Z,51.10
2018-09-30T16:10:22.383Z,51.00
2018-09-30T16:12:51.335Z,51.40
2018-09-30T16:15:19.854Z,51.20
2018-09-30T16:17:48.331Z,51.40
2018-09-30T16:20:17.502Z,51.50
2018-09-30T16:22:45.988Z,52.20
2018-09-30T16:25:14.534Z,52.20
2018-09-30T16:27:43.024Z,52.20
2018-09-30T16:30:11.567Z,52.90
2018-09-30T16:32:40.083Z,52.70
2018-09-30T16:35:08.638Z,53.10
2018-09-30T16:37:37.144Z,52.60
2018-09-30T16:40:05.702Z,52.70
2018-09-30T16:42:34.180Z,53.00
2018-09-30T16:45:02.719Z,53.50
2018-09-30T16:47:31.210Z,53.50
2018-09-30T16:49:59.742Z,53.60
2018-09-30T16:52:28.240Z,53.30
2018-09-30T16:54:56.726Z,53.30
2018-09-30T16:57:25.306Z,53.70
2018-09-30T16:59:53.791Z,53.70
2018-09-30T17:02:22.361Z,54.50
2018-09-30T17:04:50.872Z,54.40
2018-09-30T17:07:19.404Z,54.20
2018-09-30T17:09:47.891Z,54.50
2018-09-30T17:12:16.441Z,54.60
2018-09-30T17:14:44.925Z,54.70
2018-09-30T17:17:13.696Z,54.80
2018-09-30T17:19:42.207Z,55.10
2018-09-30T17:22:10.774Z,55.40
2018-09-30T17:24:39.284Z,55.50
2018-09-30T17:27:07.852Z,55.70
2018-09-30T17:29:36.358Z,56.20
2018-09-30T17:32:04.923Z,56.20
2018-09-30T17:34:33.415Z,56.30
2018-09-30T17:37:03.196Z,56.70
2018-09-30T17:39:31.754Z,57.10
2018-09-30T17:42:00.297Z,57.40
2018-09-30T17:44:28.848Z,57.80
2018-09-30T17:46:57.636Z,58.10
2018-09-30T17:49:26.156Z,58.00
2018-09-30T17:51:55.444Z,58.20
2018-09-30T17:54:23.965Z,58.50
2018-09-30T17:56:52.500Z,59.20
2018-09-30T17:59:21.074Z,58.60
2018-09-30T18:01:49.590Z,59.00
2018-09-30T18:04:18.162Z,59.10
2018-09-30T18:06:46.688Z,59.40
2018-09-30T18:09:15.255Z,59.60
2018-09-30T18:11:43.762Z,59.70
2018-09-30T18:14:12.304Z,59.80
2018-09-30T18:16:40.827Z,60.20
2018-09-30T18:19:09.409Z,60.30
2018-09-30T18:21:37.908Z,60.40
2018-09-30T18:24:06.533Z,60.60
2018-09-30T18:26:35.047Z,60.60
2018-09-30T18:29:03.930Z,61.10
2018-09-30T18:31:32.492Z,61.10
2018-09-30T18:34:03.078Z,61.20
2018-09-30T18:36:31.582Z,61.40
2018-09-30T18:39:00.146Z,61.90
2018-09-30T18:41:28.705Z,61.80
2018-09-30T18:43:57.279Z,62.00
2018-09-30T18:46:25.792Z,61.80
2018-09-30T18:48:54.316Z,62.10
2018-09-30T18:51:22.841Z,62.30
2018-09-30T18:53:51.385Z,62.70
2018-09-30T18:56:20.032Z,62.30
2018-09-30T18:58:48.540Z,62.70
2018-09-30T19:01:17.339Z,63.30
2018-09-30T19:03:45.880Z,63.20
2018-09-30T19:06:14.454Z,63.30
2018-09-30T19:08:42.985Z,63.10
2018-09-30T19:11:11.578Z,63.10
2018-09-30T19:13:40.082Z,63.30
2018-09-30T19:16:08.699Z,63.80
2018-09-30T19:18:37.159Z,63.70
2018-09-30T19:21:05.740Z,64.00
2018-09-30T19:23:34.251Z,64.50
2018-09-30T19:26:04.085Z,65.00
2018-09-30T19:28:32.683Z,64.50
2018-09-30T19:31:03.368Z,64.90
2018-09-30T19:33:31.971Z,65.40
2018-09-30T19:36:00.545Z,65.50
2018-09-30T19:38:29.064Z,65.50
2018-09-30T19:40:57.655Z,65.50
2018-09-30T19:43:26.176Z,65.60
2018-09-30T19:45:54.686Z,65.70
2018-09-30T19:48:23.267Z,65.80
2018-09-30T19:50:51.784Z,66.30
2018-09-30T19:53:20.404Z,66.10
2018-09-30T19:55:48.920Z,66.00
2018-09-30T19:58:17.521Z,66.20
2018-09-30T20:00:46.061Z,66.50
2018-09-30T20:03:14.628Z,66.20
2018-09-30T20:05:43.140Z,66.30
2018-09-30T20:08:11.804Z,66.10
2018-09-30T20:10:40.256Z,66.10
2018-09-30T20:13:08.826Z,66.80
2018-09-30T20:15:37.329Z,66.80
2018-09-30T20:18:05.904Z,66.70
2018-09-30T20:20:34.422Z,66.80
2018-09-30T20:23:02.954Z,67.00
2018-09-30T20:25:31.507Z,66.60
2018-09-30T20:28:00.051Z,67.30
2018-09-30T20:30:28.576Z,67.20
2018-09-30T20:32:57.135Z,67.20
2018-09-30T20:35:25.655Z,67.40
2018-09-30T20:37:54.286Z,67.70
2018-09-30T20:40:22.825Z,68.10
2018-09-30T20:42:51.390Z,67.80
2018-09-30T20:45:19.944Z,68.00
2018-09-30T20:47:48.462Z,68.60
2018-09-30T20:50:17.038Z,68.00
2018-09-30T20:52:45.540Z,68.40
2018-09-30T20:55:14.088Z,69.10
2018-09-30T20:57:42.588Z,69.20
2018-09-30T21:00:11.208Z,69.40
2018-09-30T21:02:39.747Z,69.60
2018-09-30T21:07:19.792Z,69.40
2018-09-30T21:09:48.681Z,70.20
2018-09-30T21:12:17.223Z,69.30
2018-09-30T21:14:45.897Z,70.40
2018-09-30T21:17:14.428Z,70.60
2018-09-30T21:19:42.928Z,70.40
2018-09-30T21:22:11.457Z,70.40
2018-09-30T21:24:39.954Z,70.60
2018-09-30T21:27:08.588Z,70.70
2018-09-30T21:29:40.192Z,71.10
2018-09-30T21:32:08.741Z,70.90
2018-09-30T21:34:37.283Z,70.90
2018-09-30T21:37:06.138Z,71.10
2018-09-30T21:39:34.638Z,71.60
2018-09-30T21:42:03.584Z,71.60
2018-09-30T21:44:32.097Z,71.90
2018-09-30T21:47:00.588Z,71.90
2018-09-30T21:49:29.164Z,71.90
2018-09-30T21:51:57.651Z,72.20
2018-09-30T21:54:26.215Z,72.20
2018-09-30T21:56:54.745Z,72.00
2018-09-30T21:59:23.334Z,72.10
2018-09-30T22:01:51.890Z,72.20
2018-09-30T22:04:20.429Z,72.80
2018-09-30T22:06:48.945Z,72.30
2018-09-30T22:09:17.471Z,72.80
2018-09-30T22:11:45.993Z,72.70
2018-09-30T22:14:14.542Z,72.80
2018-09-30T22:16:43.046Z,73.00
2018-09-30T22:19:11.669Z,73.30
2018-09-30T22:21:40.164Z,74.00
2018-09-30T22:24:08.676Z,74.10
2018-09-30T22:26:37.218Z,74.50
2018-09-30T22:29:05.724Z,74.50
2018-09-30T22:31:34.324Z,74.60
2018-09-30T22:34:02.863Z,74.70
2018-09-30T22:36:31.387Z,74.90
2018-09-30T22:38:59.871Z,76.20
2018-09-30T22:41:28.402Z,77.00
2018-09-30T22:43:56.877Z,77.20
2018-09-30T22:46:25.493Z,77.80
2018-09-30T22:48:53.979Z,78.40
2018-09-30T22:51:22.495Z,78.70
2018-09-30T22:53:50.977Z,79.60
2018-09-30T22:56:19.504Z,80.70
2018-09-30T22:58:48.036Z,81.00
2018-09-30T23:01:16.664Z,81.80
2018-09-30T23:03:45.145Z,83.80
2018-09-30T23:06:13.658Z,83.40
2018-09-30T23:08:42.203Z,85.50
2018-09-30T23:11:10.706Z,85.20
2018-09-30T23:13:39.268Z,86.40
2018-09-30T23:16:07.800Z,88.50
2018-09-30T23:18:36.357Z,88.90
2018-09-30T23:21:04.883Z,90.20
2018-09-30T23:23:33.408Z,90.50
2018-09-30T23:26:01.906Z,90.60
2018-09-30T23:28:30.449Z,91.20
2018-09-30T23:30:58.952Z,91.40
2018-09-30T23:33:27.476Z,92.30
2018-09-30T23:35:55.952Z,92.00
2018-09-30T23:38:24.486Z,92.60
2018-09-30T23:40:52.988Z,92.70
2018-09-30T23:43:21.510Z,93.10
2018-09-30T23:45:50.000Z,93.30
2018-09-30T23:48:18.524Z,93.30
2018-09-30T23:50:47.005Z,93.60
2018-09-30T23:53:15.544Z,93.70
2018-09-30T23:55:44.032Z,94.00
2018-09-30T23:58:13.639Z,94.30
